createdAt,value
2018-07-09T00:02:00.077Z,56.81
2018-07-09T00:04:29.336Z,57.93
2018-07-09T00:06:58.556Z,56.51
2018-07-09T00:09:27.812Z,56.60
2018-07-09T00:11:57.052Z,56.67
2018-07-09T00:14:26.309Z,56.62
2018-07-09T00:16:55.556Z,56.81
2018-07-09T00:19:24.701Z,57.02
2018-07-09T00:21:54.009Z,57.27
2018-07-09T00:24:23.212Z,57.34
2018-07-09T00:26:52.499Z,57.49
2018-07-09T00:29:21.793Z,58.28
2018-07-09T00:31:51.057Z,58.53
2018-07-09T00:34:20.438Z,58.84
2018-07-09T00:36:49.648Z,58.66
2018-07-09T00:39:18.896Z,59.11
2018-07-09T00:41:48.282Z,58.92
2018-07-09T00:44:17.613Z,58.46
2018-07-09T00:46:46.844Z,58.86
2018-07-09T00:49:16.229Z,58.82
2018-07-09T00:51:45.667Z,58.99
2018-07-09T00:54:15.010Z,59.09
2018-07-09T00:56:44.201Z,59.36
2018-07-09T00:59:13.524Z,59.41
2018-07-09T01:01:42.718Z,59.41
2018-07-09T01:04:11.987Z,58.87
2018-07-09T01:06:41.169Z,59.53
2018-07-09T01:09:10.444Z,59.36
2018-07-09T01:11:45.517Z,59.40
2018-07-09T01:14:14.734Z,59.83
2018-07-09T01:16:43.928Z,59.70
2018-07-09T01:19:13.200Z,60.17
2018-07-09T01:21:42.409Z,59.88
2018-07-09T01:24:11.694Z,60.06
2018-07-09T01:26:42.101Z,60.12
2018-07-09T01:29:11.364Z,60.64
2018-07-09T01:31:40.624Z,59.93
2018-07-09T01:34:09.929Z,60.06
2018-07-09T01:36:39.140Z,60.74
2018-07-09T01:39:08.528Z,60.23
2018-07-09T01:41:37.740Z,60.03
2018-07-09T01:44:06.902Z,60.51
2018-07-09T01:46:36.155Z,60.91
2018-07-09T01:49:05.369Z,60.70
2018-07-09T01:51:34.601Z,60.83
2018-07-09T01:54:03.869Z,60.37
2018-07-09T01:56:33.149Z,60.09
2018-07-09T01:59:02.305Z,60.28
2018-07-09T02:01:31.596Z,60.62
2018-07-09T02:04:00.809Z,60.30
2018-07-09T02:06:30.068Z,60.51
2018-07-09T02:08:59.308Z,60.47
2018-07-09T02:11:28.553Z,59.84
2018-07-09T02:13:57.723Z,59.64
2018-07-09T02:16:27.145Z,60.38
2018-07-09T02:18:56.285Z,60.31
2018-07-09T02:21:25.572Z,60.61
2018-07-09T02:23:55.149Z,61.03
2018-07-09T02:26:24.433Z,61.14
2018-07-09T02:28:53.608Z,61.83
2018-07-09T02:31:22.884Z,61.46
2018-07-09T02:33:52.087Z,61.96
2018-07-09T02:36:21.349Z,61.90
2018-07-09T02:38:50.640Z,62.20
2018-07-09T02:41:19.866Z,62.16
2018-07-09T02:43:49.126Z,62.57
2018-07-09T02:46:18.298Z,61.81
2018-07-09T02:48:47.524Z,62.05
2018-07-09T02:51:16.709Z,62.35
2018-07-09T02:53:45.925Z,62.87
2018-07-09T02:56:15.081Z,63.52
2018-07-09T02:58:44.313Z,63.30
2018-07-09T03:01:13.580Z,63.25
2018-07-09T03:03:42.906Z,63.03
2018-07-09T03:06:12.077Z,62.72
2018-07-09T03:08:41.304Z,62.58
2018-07-09T03:11:10.487Z,62.90
2018-07-09T03:13:39.693Z,63.10
2018-07-09T03:16:08.928Z,63.04
2018-07-09T03:18:38.239Z,63.14
2018-07-09T03:21:07.628Z,63.40
2018-07-09T03:23:36.889Z,63.25
2018-07-09T03:26:06.061Z,63.17
2018-07-09T03:28:35.281Z,63.45
2018-07-09T03:31:04.560Z,63.49
2018-07-09T03:33:33.804Z,63.88
2018-07-09T03:36:02.987Z,64.08
2018-07-09T03:38:32.200Z,63.93
2018-07-09T03:41:01.493Z,63.48
2018-07-09T03:43:30.659Z,64.17
2018-07-09T03:45:59.902Z,64.13
2018-07-09T03:48:29.128Z,63.94
2018-07-09T03:50:58.378Z,63.80
2018-07-09T03:53:27.540Z,63.83
2018-07-09T03:55:56.773Z,63.82
2018-07-09T03:58:26.040Z,63.85
2018-07-09T04:00:55.282Z,64.07
2018-07-09T04:03:24.432Z,63.81
2018-07-09T04:05:53.777Z,63.79
2018-07-09T04:08:22.922Z,63.89
2018-07-09T04:10:52.148Z,63.44
2018-07-09T04:13:21.302Z,63.68
2018-07-09T04:15:50.539Z,63.83
2018-07-09T04:18:23.097Z,63.87
2018-07-09T04:20:53.276Z,63.42
2018-07-09T04:23:22.532Z,63.67
2018-07-09T04:25:51.905Z,62.97
2018-07-09T04:28:21.477Z,63.38
2018-07-09T04:30:51.555Z,63.03
2018-07-09T04:33:20.845Z,61.57
2018-07-09T04:35:50.059Z,61.11
2018-07-09T04:38:19.252Z,60.22
2018-07-09T04:40:48.469Z,60.47
2018-07-09T04:43:17.738Z,60.10
2018-07-09T04:45:47.201Z,59.96
2018-07-09T04:48:16.325Z,59.60
2018-07-09T04:50:45.461Z,59.36
2018-07-09T04:53:14.629Z,58.16
2018-07-09T04:55:43.793Z,58.18
2018-07-09T04:58:12.927Z,57.81
2018-07-09T05:00:42.124Z,56.64
2018-07-09T05:03:11.238Z,55.32
2018-07-09T05:05:40.553Z,56.89
2018-07-09T05:08:09.612Z,55.28
2018-07-09T05:10:38.951Z,55.01
2018-07-09T05:13:08.146Z,54.64
2018-07-09T05:15:37.288Z,55.09
2018-07-09T05:18:06.694Z,53.86
2018-07-09T05:20:35.907Z,52.55
2018-07-09T05:23:06.268Z,50.99
2018-07-09T05:25:35.731Z,50.16
2018-07-09T05:28:04.969Z,49.65
2018-07-09T05:30:34.133Z,48.77
2018-07-09T05:33:03.317Z,48.49
2018-07-09T05:35:32.496Z,47.75
2018-07-09T05:38:01.875Z,45.46
2018-07-09T05:40:31.365Z,45.56
2018-07-09T05:43:00.796Z,45.41
2018-07-09T05:45:30.088Z,43.41
2018-07-09T05:47:59.510Z,43.34
2018-07-09T05:50:28.765Z,43.38
2018-07-09T05:52:58.183Z,42.17
2018-07-09T05:55:27.405Z,42.51
2018-07-09T05:57:56.608Z,40.52
2018-07-09T06:00:26.044Z,40.25
2018-07-09T06:02:55.220Z,40.99
2018-07-09T06:05:24.417Z,41.00
2018-07-09T06:07:53.669Z,42.05
2018-07-09T06:10:22.852Z,42.76
2018-07-09T06:12:52.053Z,43.97
2018-07-09T06:15:21.197Z,46.48
2018-07-09T06:17:50.670Z,42.79
2018-07-09T06:20:19.924Z,43.35
2018-07-09T06:22:49.415Z,44.77
2018-07-09T06:25:18.656Z,46.19
2018-07-09T06:27:47.823Z,47.49
2018-07-09T06:30:17.096Z,46.85
2018-07-09T06:32:46.258Z,47.41
2018-07-09T06:35:15.437Z,47.38
2018-07-09T06:37:44.582Z,47.81
2018-07-09T06:40:13.805Z,47.36
2018-07-09T06:42:42.965Z,46.62
2018-07-09T06:45:12.191Z,47.18
2018-07-09T06:47:41.377Z,47.45
2018-07-09T06:50:10.718Z,46.83
2018-07-09T06:52:39.954Z,46.42
2018-07-09T06:55:09.377Z,46.63
2018-07-09T06:57:38.555Z,47.65
2018-07-09T07:00:07.773Z,47.79
2018-07-09T07:02:36.977Z,47.72
2018-07-09T07:05:06.481Z,47.03
2018-07-09T07:07:35.697Z,46.84
2018-07-09T07:10:04.969Z,46.85
2018-07-09T07:12:34.186Z,47.27
2018-07-09T07:15:03.591Z,46.76
2018-07-09T07:17:32.768Z,46.50
2018-07-09T07:20:02.371Z,46.34
2018-07-09T07:22:31.569Z,46.02
2018-07-09T07:25:00.785Z,46.48
2018-07-09T07:27:30.275Z,47.44
2018-07-09T07:29:59.577Z,48.77
2018-07-09T07:32:28.766Z,49.15
2018-07-09T07:34:57.987Z,47.91
2018-07-09T07:37:27.129Z,47.84
2018-07-09T07:39:56.328Z,48.07
2018-07-09T07:42:25.487Z,48.33
2018-07-09T07:44:54.722Z,46.68
2018-07-09T07:47:23.874Z,45.78
2018-07-09T07:49:55.385Z,45.48
2018-07-09T07:52:24.909Z,44.04
2018-07-09T07:54:54.304Z,44.71
2018-07-09T07:57:25.361Z,44.32
2018-07-09T07:59:54.773Z,43.57
2018-07-09T08:02:24.035Z,42.92
2018-07-09T08:04:53.579Z,43.28
2018-07-09T08:07:22.773Z,43.53
2018-07-09T08:09:53.013Z,44.16
2018-07-09T08:14:52.015Z,43.17
2018-07-09T08:17:21.411Z,42.80
2018-07-09T08:19:50.687Z,43.07
2018-07-09T08:22:19.947Z,43.19
2018-07-09T08:24:49.417Z,43.08
2018-07-09T08:27:18.665Z,41.96
2018-07-09T08:29:48.705Z,41.89
2018-07-09T08:32:18.003Z,41.18
2018-07-09T08:34:47.287Z,40.05
2018-07-09T08:37:16.520Z,36.59
2018-07-09T08:39:45.918Z,35.76
2018-07-09T08:42:15.210Z,36.45
2018-07-09T08:44:44.677Z,37.60
2018-07-09T08:47:14.436Z,36.70
2018-07-09T08:49:43.733Z,36.53
2018-07-09T08:52:12.946Z,36.97
2018-07-09T08:54:42.154Z,33.85
2018-07-09T08:57:11.306Z,33.88
2018-07-09T08:59:40.550Z,34.84
2018-07-09T09:02:09.925Z,32.22
2018-07-09T09:04:39.404Z,30.74
2018-07-09T09:07:08.634Z,31.06
2018-07-09T09:09:37.817Z,31.38
2018-07-09T09:12:07.359Z,30.74
2018-07-09T09:14:36.728Z,31.85
2018-07-09T09:17:06.012Z,27.86
2018-07-09T09:19:35.238Z,27.92
2018-07-09T09:22:04.507Z,29.97
2018-07-09T09:24:33.910Z,29.92
2018-07-09T09:27:03.144Z,28.93
2018-07-09T09:29:32.500Z,29.13
2018-07-09T09:32:02.076Z,30.02
2018-07-09T09:34:31.521Z,29.36
2018-07-09T09:37:01.038Z,29.75
2018-07-09T09:39:30.277Z,29.39
2018-07-09T09:42:00.953Z,29.15
2018-07-09T09:44:30.346Z,29.54
2018-07-09T09:46:59.614Z,28.19
2018-07-09T09:49:29.551Z,29.45
2018-07-09T09:51:58.888Z,27.87
2018-07-09T09:54:28.146Z,28.49
2018-07-09T09:56:57.552Z,28.40
2018-07-09T09:59:26.965Z,27.07
2018-07-09T10:01:56.402Z,26.29
2018-07-09T10:04:25.652Z,26.89
2018-07-09T10:06:54.897Z,23.08
2018-07-09T10:09:24.119Z,24.64
2018-07-09T10:11:53.393Z,25.18
2018-07-09T10:14:22.636Z,23.60
2018-07-09T10:16:51.937Z,24.18
2018-07-09T10:19:21.117Z,25.51
2018-07-09T10:21:50.361Z,24.94
2018-07-09T10:24:19.702Z,25.14
2018-07-09T10:26:49.058Z,24.81
2018-07-09T10:29:18.190Z,24.74
2018-07-09T10:31:47.564Z,24.55
2018-07-09T10:34:16.813Z,24.71
2018-07-09T10:36:46.001Z,24.68
2018-07-09T10:39:15.217Z,23.96
2018-07-09T10:41:44.454Z,24.53
2018-07-09T10:44:13.701Z,24.59
2018-07-09T10:46:42.947Z,25.14
2018-07-09T10:49:12.334Z,24.32
2018-07-09T10:51:41.647Z,25.37
2018-07-09T10:54:10.809Z,24.79
2018-07-09T10:56:40.043Z,25.06
2018-07-09T10:59:09.430Z,25.90
2018-07-09T11:01:38.749Z,24.94
2018-07-09T11:04:08.065Z,23.96
2018-07-09T11:06:37.297Z,24.64
2018-07-09T11:09:07.958Z,24.70
2018-07-09T11:11:37.652Z,24.03
2018-07-09T11:14:06.859Z,24.41
2018-07-09T11:16:36.183Z,23.65
2018-07-09T11:19:05.364Z,22.59
2018-07-09T11:21:34.714Z,24.02
2018-07-09T11:24:03.967Z,24.54
2018-07-09T11:26:33.192Z,25.08
2018-07-09T11:29:02.365Z,25.41
2018-07-09T11:31:32.648Z,24.59
2018-07-09T11:34:01.966Z,24.79
2018-07-09T11:36:31.265Z,26.28
2018-07-09T11:39:00.449Z,26.53
2018-07-09T11:41:29.680Z,26.53
2018-07-09T11:43:59.105Z,25.85
2018-07-09T11:46:28.398Z,25.24
2018-07-09T11:48:57.706Z,23.83
2018-07-09T11:51:26.985Z,26.17
2018-07-09T11:53:56.268Z,26.11
2018-07-09T11:56:25.504Z,26.37
2018-07-09T11:58:54.905Z,26.15
2018-07-09T12:01:24.187Z,27.46
2018-07-09T12:03:53.551Z,27.82
2018-07-09T12:06:22.805Z,28.16
2018-07-09T12:08:52.194Z,29.65
2018-07-09T12:11:21.412Z,31.08
2018-07-09T12:13:50.553Z,30.36
2018-07-09T12:16:19.840Z,30.71
2018-07-09T12:18:49.178Z,31.49
2018-07-09T12:21:18.655Z,30.57
2018-07-09T12:23:47.852Z,29.20
2018-07-09T12:26:17.100Z,28.17
2018-07-09T12:28:46.376Z,28.77
2018-07-09T12:31:15.743Z,29.08
2018-07-09T12:33:44.980Z,29.62
2018-07-09T12:36:14.341Z,29.51
2018-07-09T12:38:43.801Z,28.74
2018-07-09T12:41:13.104Z,28.26
2018-07-09T12:43:42.511Z,29.21
2018-07-09T12:46:11.721Z,30.71
2018-07-09T12:48:41.228Z,29.78
2018-07-09T12:51:10.591Z,29.85
2018-07-09T12:53:39.889Z,31.46
2018-07-09T12:56:09.208Z,32.45
2018-07-09T12:58:38.423Z,33.84
2018-07-09T13:01:07.877Z,33.47
2018-07-09T13:03:37.137Z,35.10
2018-07-09T13:06:06.523Z,32.61
2018-07-09T13:08:35.726Z,32.57
2018-07-09T13:11:05.098Z,32.10
2018-07-09T13:13:35.140Z,32.15
2018-07-09T13:16:04.456Z,31.57
2018-07-09T13:18:33.819Z,31.41
2018-07-09T13:21:04.050Z,31.28
2018-07-09T13:23:33.806Z,31.46
2018-07-09T13:26:03.070Z,31.28
2018-07-09T13:28:32.353Z,31.45
2018-07-09T13:31:01.710Z,32.59
2018-07-09T13:33:31.109Z,32.22
2018-07-09T13:36:00.556Z,33.51
2018-07-09T13:38:30.435Z,32.38
2018-07-09T13:40:59.597Z,31.41
2018-07-09T13:43:29.356Z,32.08
2018-07-09T13:45:59.097Z,32.25
2018-07-09T13:48:28.489Z,31.92
2018-07-09T13:50:57.945Z,32.56
2018-07-09T13:53:27.506Z,31.39
2018-07-09T13:55:57.036Z,31.01
2018-07-09T13:58:26.506Z,31.92
2018-07-09T14:00:55.981Z,32.60
2018-07-09T14:03:25.252Z,33.42
2018-07-09T14:05:54.725Z,33.66
2018-07-09T14:08:24.111Z,34.74
2018-07-09T14:10:53.533Z,36.05
2018-07-09T14:13:22.908Z,37.94
2018-07-09T14:15:52.154Z,38.43
2018-07-09T14:18:21.524Z,37.83
2018-07-09T14:20:50.924Z,39.25
2018-07-09T14:23:20.178Z,39.19
2018-07-09T14:25:49.489Z,39.60
2018-07-09T14:28:19.154Z,39.22
2018-07-09T14:30:50.876Z,38.36
2018-07-09T14:33:20.134Z,38.86
2018-07-09T14:35:49.352Z,39.04
2018-07-09T14:38:18.580Z,38.42
2018-07-09T14:40:47.865Z,37.79
2018-07-09T14:43:17.140Z,37.86
2018-07-09T14:45:57.509Z,38.85
2018-07-09T14:48:27.044Z,39.77
2018-07-09T14:50:57.539Z,39.73
2018-07-09T14:53:28.212Z,39.99
2018-07-09T14:55:57.345Z,39.81
2018-07-09T14:58:26.549Z,39.33
2018-07-09T15:00:56.723Z,38.35
2018-07-09T15:03:25.999Z,38.10
2018-07-09T15:05:55.249Z,38.29
2018-07-09T15:08:25.158Z,38.84
2018-07-09T15:10:54.297Z,38.82
2018-07-09T15:13:23.722Z,39.13
2018-07-09T15:15:53.076Z,39.78
2018-07-09T15:18:22.293Z,39.88
2018-07-09T15:20:51.660Z,39.02
2018-07-09T15:23:21.147Z,39.84
2018-07-09T15:25:50.429Z,40.63
2018-07-09T15:28:19.609Z,40.96
2018-07-09T15:30:48.968Z,40.49
2018-07-09T15:33:18.227Z,39.23
2018-07-09T15:35:47.474Z,38.56
2018-07-09T15:38:16.801Z,38.35
2018-07-09T15:40:46.109Z,38.84
2018-07-09T15:43:15.527Z,38.98
2018-07-09T15:45:44.657Z,39.87
2018-07-09T15:48:13.906Z,39.40
2018-07-09T15:50:43.155Z,39.87
2018-07-09T15:53:12.329Z,39.24
2018-07-09T15:55:41.461Z,38.85
2018-07-09T15:58:10.797Z,39.35
2018-07-09T16:00:40.041Z,38.80
2018-07-09T16:03:09.306Z,39.54
2018-07-09T16:05:41.714Z,41.08
2018-07-09T16:08:10.967Z,40.01
2018-07-09T16:10:40.364Z,40.19
2018-07-09T16:13:09.874Z,40.13
2018-07-09T16:15:39.106Z,40.14
2018-07-09T16:18:08.416Z,40.77
2018-07-09T16:20:37.673Z,40.85
2018-07-09T16:23:06.886Z,39.98
2018-07-09T16:25:36.125Z,38.87
2018-07-09T16:28:05.317Z,39.79
2018-07-09T16:30:34.458Z,39.73
2018-07-09T16:33:03.876Z,40.98
2018-07-09T16:35:33.004Z,40.04
2018-07-09T16:38:02.263Z,40.60
2018-07-09T16:40:32.177Z,41.63
2018-07-09T16:43:02.167Z,41.46
2018-07-09T16:45:31.360Z,41.24
2018-07-09T16:48:00.679Z,40.79
2018-07-09T16:50:30.064Z,41.27
2018-07-09T16:52:59.402Z,40.88
2018-07-09T16:55:28.682Z,40.79
2018-07-09T16:57:57.982Z,41.37
2018-07-09T17:00:27.230Z,41.56
2018-07-09T17:02:56.581Z,41.77
2018-07-09T17:05:26.254Z,41.56
2018-07-09T17:07:55.716Z,41.41
2018-07-09T17:10:25.157Z,42.04
2018-07-09T17:12:54.514Z,42.46
2018-07-09T17:15:23.758Z,41.43
2018-07-09T17:17:53.009Z,41.57
2018-07-09T17:20:23.333Z,41.94
2018-07-09T17:22:52.942Z,41.96
2018-07-09T17:25:22.197Z,42.78
2018-07-09T17:27:51.535Z,43.21
2018-07-09T17:30:21.074Z,43.03
2018-07-09T17:32:51.566Z,43.09
2018-07-09T17:35:20.901Z,43.21
2018-07-09T17:37:50.289Z,43.26
2018-07-09T17:40:19.989Z,42.92
2018-07-09T17:42:51.304Z,43.70
2018-07-09T17:45:21.118Z,44.04
2018-07-09T17:48:13.420Z,43.06
2018-07-09T17:51:06.251Z,43.25
2018-07-09T17:53:58.247Z,43.06
2018-07-09T17:56:27.441Z,43.15
2018-07-09T17:58:56.950Z,43.10
2018-07-09T18:01:26.732Z,43.38
2018-07-09T18:03:56.372Z,44.08
2018-07-09T18:06:26.561Z,43.78
2018-07-09T18:08:55.837Z,44.46
2018-07-09T18:11:26.149Z,44.03
2018-07-09T18:13:55.513Z,43.38
2018-07-09T18:16:24.994Z,44.14
2018-07-09T18:18:54.249Z,44.43
2018-07-09T18:21:23.666Z,44.96
2018-07-09T18:23:53.145Z,44.60
2018-07-09T18:26:22.322Z,43.50
2018-07-09T18:28:51.576Z,44.02
2018-07-09T18:31:20.925Z,44.18
2018-07-09T18:33:50.217Z,44.45
2018-07-09T18:36:19.766Z,44.98
2018-07-09T18:38:49.188Z,45.33
2018-07-09T18:41:18.526Z,45.16
2018-07-09T18:43:47.827Z,45.90
2018-07-09T18:46:17.121Z,45.68
2018-07-09T18:48:46.474Z,46.15
2018-07-09T18:51:15.688Z,45.81
2018-07-09T18:53:45.053Z,46.06
2018-07-09T18:56:14.329Z,46.75
2018-07-09T18:58:43.557Z,46.11
2018-07-09T19:01:12.820Z,46.15
2018-07-09T19:03:42.167Z,46.44
2018-07-09T19:07:24.762Z,46.25
2018-07-09T19:09:54.361Z,46.68
2018-07-09T19:12:24.190Z,46.94
2018-07-09T19:14:53.718Z,46.85
2018-07-09T19:18:02.168Z,47.23
2018-07-09T19:20:42.707Z,46.70
2018-07-09T19:23:11.361Z,47.40
2018-07-09T19:25:39.749Z,46.65
2018-07-09T19:28:08.304Z,47.14
2018-07-09T19:30:36.355Z,47.29
2018-07-09T19:33:04.293Z,47.96
2018-07-09T19:38:00.455Z,47.29
2018-07-09T19:40:28.640Z,48.00
2018-07-09T19:42:56.852Z,48.18
2018-07-09T19:45:24.830Z,48.39
2018-07-09T19:47:52.967Z,48.03
2018-07-09T19:50:20.929Z,48.31
2018-07-09T19:52:48.890Z,47.51
2018-07-09T19:55:16.881Z,48.48
2018-07-09T19:57:44.857Z,48.86
2018-07-09T20:00:12.829Z,49.25
2018-07-09T20:02:40.787Z,48.56
2018-07-09T20:05:08.823Z,49.10
2018-07-09T20:07:36.740Z,48.24
2018-07-09T20:10:10.121Z,49.61
2018-07-09T20:12:43.413Z,49.13
2018-07-09T20:15:16.737Z,49.63
2018-07-09T20:17:44.633Z,49.65
2018-07-09T20:20:12.638Z,49.80
2018-07-09T20:22:40.612Z,50.15
2018-07-09T20:25:08.609Z,50.36
2018-07-09T20:27:36.545Z,49.93
2018-07-09T20:30:04.541Z,50.63
2018-07-09T20:32:32.506Z,50.30
2018-07-09T20:35:00.493Z,50.50
2018-07-09T20:37:28.454Z,50.53
2018-07-09T20:39:56.664Z,51.17
2018-07-09T20:42:24.658Z,50.61
2018-07-09T20:44:52.889Z,50.36
2018-07-09T20:47:20.829Z,50.38
2018-07-09T20:49:48.868Z,50.82
2018-07-09T20:52:16.841Z,50.84
2018-07-09T20:54:44.789Z,51.70
2018-07-09T20:57:12.995Z,51.74
2018-07-09T20:59:40.947Z,51.68
2018-07-09T21:02:08.990Z,52.08
2018-07-09T21:04:36.942Z,51.07
2018-07-09T21:07:04.955Z,51.40
2018-07-09T21:09:33.725Z,51.26
2018-07-09T21:12:09.096Z,51.39
2018-07-09T21:14:37.180Z,51.41
2018-07-09T21:17:05.165Z,51.39
2018-07-09T21:19:33.136Z,51.10
2018-07-09T21:22:01.262Z,51.32
2018-07-09T21:24:29.250Z,51.76
2018-07-09T21:26:57.277Z,51.87
2018-07-09T21:29:25.248Z,52.22
2018-07-09T21:31:53.239Z,52.21
2018-07-09T21:34:21.166Z,52.07
2018-07-09T21:36:50.059Z,52.39
2018-07-09T21:39:18.017Z,52.40
2018-07-09T21:41:46.125Z,51.30
2018-07-09T21:44:14.069Z,51.31
2018-07-09T21:46:42.046Z,51.61
2018-07-09T21:49:09.981Z,51.75
2018-07-09T21:51:37.981Z,52.90
2018-07-09T21:54:05.913Z,52.39
2018-07-09T21:56:33.978Z,52.82
2018-07-09T21:59:01.943Z,55.16
2018-07-09T22:01:30.090Z,55.99
2018-07-09T22:03:58.101Z,54.89
2018-07-09T22:06:26.270Z,55.82
2018-07-09T22:08:54.250Z,57.04
2018-07-09T22:11:22.669Z,58.21
2018-07-09T22:13:50.817Z,58.74
2018-07-09T22:16:18.840Z,58.82
2018-07-09T22:18:46.781Z,58.20
2018-07-09T22:21:14.949Z,57.56
2018-07-09T22:23:42.940Z,57.14
2018-07-09T22:26:10.940Z,57.50
2018-07-09T22:28:38.949Z,57.78
2018-07-09T22:31:08.234Z,58.73
2018-07-09T22:33:37.546Z,57.87
2018-07-09T22:36:06.857Z,57.54
2018-07-09T22:38:36.099Z,57.60
2018-07-09T22:41:05.322Z,56.81
2018-07-09T22:43:45.994Z,58.14
2018-07-09T22:46:15.281Z,57.54
2018-07-09T22:48:44.742Z,57.17
2018-07-09T22:51:14.111Z,57.82
2018-07-09T22:53:43.437Z,57.10
2018-07-09T22:56:13.986Z,59.02
2018-07-09T22:58:43.869Z,59.08
2018-07-09T23:01:13.082Z,59.67
2018-07-09T23:03:42.318Z,59.72
2018-07-09T23:06:11.612Z,60.77
2018-07-09T23:08:40.921Z,60.99
2018-07-09T23:11:37.425Z,61.02
2018-07-09T23:16:48.213Z,60.37
2018-07-09T23:20:28.477Z,63.13
2018-07-09T23:22:56.448Z,63.09
2018-07-09T23:25:24.435Z,61.90
2018-07-09T23:27:52.453Z,62.51
2018-07-09T23:30:20.461Z,61.81
2018-07-09T23:32:48.403Z,61.74
2018-07-09T23:35:16.383Z,62.45
2018-07-09T23:37:44.432Z,62.95
2018-07-09T23:40:12.471Z,64.90
2018-07-09T23:42:40.416Z,66.67
2018-07-09T23:45:08.400Z,68.19
2018-07-09T23:47:36.342Z,68.11
2018-07-09T23:50:04.328Z,67.82
2018-07-09T23:52:32.277Z,68.41
2018-07-09T23:55:00.331Z,68.27
2018-07-09T23:59:50.488Z,68.87
